EVA867 RCTP-VHHH
Flight info
| Callsign | EVA867 |
|---|---|
| Flight time | 1h 37m |
| Altitude | 34000 |
| Route | CHALI1C CHALI T3 MKG A1 ELATO V522 ABBEY |
| Aircraft | B77W/H-SDE1E2E3FGHIJ1J3J4J5LM1P2RWXYZ/LB1D1 |
Departure
| Time | 2026-04-30 09:23 |
|---|---|
| Airport | Taiwan Taoyuan International Airport (RCTP) |
Arrival
| Time | 2026-04-30 11:01 |
|---|---|
| Airport | Hong Kong International Airport (VHHH) |
| Time | Latitude | Longitude | Altitude | Speed | Heading |
|---|---|---|---|---|---|
| 2026-04-30 08:55 | 25.07765 | 121.22862 | 106 ft | 0 kts | 139° |
| 2026-04-30 09:15 | 25.07782 | 121.22846 | 105 ft | 4 kts | 139° |
| 2026-04-30 09:15 | 25.07802 | 121.22826 | 105 ft | 4 kts | 139° |
| 2026-04-30 09:15 | 25.07823 | 121.22807 | 105 ft | 4 kts | 139° |
| 2026-04-30 09:15 | 25.07835 | 121.22795 | 104 ft | 4 kts | 162° |
| 2026-04-30 09:16 | 25.07842 | 121.22792 | 104 ft | 4 kts | 215° |
| 2026-04-30 09:16 | 25.07859 | 121.22810 | 103 ft | 4 kts | 229° |
| 2026-04-30 09:16 | 25.07876 | 121.22832 | 102 ft | 4 kts | 229° |
| 2026-04-30 09:16 | 25.07882 | 121.22839 | 103 ft | 0 kts | 229° |
| 2026-04-30 09:18 | 25.07881 | 121.22837 | 103 ft | 1 kts | 229° |
| 2026-04-30 09:18 | 25.07867 | 121.22820 | 102 ft | 5 kts | 229° |
| 2026-04-30 09:19 | 25.07834 | 121.22777 | 108 ft | 10 kts | 229° |
| 2026-04-30 09:19 | 25.07779 | 121.22708 | 108 ft | 14 kts | 229° |
| 2026-04-30 09:19 | 25.07706 | 121.22614 | 108 ft | 18 kts | 229° |
| 2026-04-30 09:19 | 25.07614 | 121.22496 | 107 ft | 22 kts | 229° |
| 2026-04-30 09:20 | 25.07515 | 121.22370 | 108 ft | 22 kts | 229° |
| 2026-04-30 09:20 | 25.07416 | 121.22244 | 108 ft | 22 kts | 229° |
| 2026-04-30 09:20 | 25.07318 | 121.22118 | 107 ft | 22 kts | 229° |
| 2026-04-30 09:20 | 25.07219 | 121.21992 | 108 ft | 22 kts | 229° |
| 2026-04-30 09:21 | 25.07127 | 121.21873 | 106 ft | 19 kts | 229° |
| 2026-04-30 09:21 | 25.07105 | 121.21818 | 107 ft | 3 kts | 285° |
| 2026-04-30 09:21 | 25.07118 | 121.21798 | 108 ft | 4 kts | 310° |
| 2026-04-30 09:21 | 25.07159 | 121.21754 | 108 ft | 9 kts | 318° |
| 2026-04-30 09:22 | 25.07194 | 121.21721 | 107 ft | 11 kts | 319° |
| 2026-04-30 09:22 | 25.07283 | 121.21637 | 107 ft | 10 kts | 323° |
| 2026-04-30 09:22 | 25.07312 | 121.21640 | 107 ft | 7 kts | 21° |
| 2026-04-30 09:22 | 25.07361 | 121.21688 | 107 ft | 12 kts | 49° |
| 2026-04-30 09:23 | 25.07434 | 121.21782 | 108 ft | 35 kts | 49° |
| 2026-04-30 09:23 | 25.07867 | 121.22330 | 108 ft | 154 kts | 49° |
| 2026-04-30 09:23 | 25.08737 | 121.23449 | 762 ft | 208 kts | 47° |
| 2026-04-30 09:23 | 25.09648 | 121.24602 | 2691 ft | 198 kts | 49° |
| 2026-04-30 09:24 | 25.10583 | 121.25795 | 3438 ft | 216 kts | 50° |
| 2026-04-30 09:24 | 25.11633 | 121.27134 | 3958 ft | 244 kts | 50° |
| 2026-04-30 09:24 | 25.12776 | 121.28591 | 3984 ft | 256 kts | 49° |
| 2026-04-30 09:24 | 25.14114 | 121.29759 | 3992 ft | 253 kts | 24° |
| 2026-04-30 09:25 | 25.15899 | 121.30086 | 4014 ft | 264 kts | 356° |
| 2026-04-30 09:25 | 25.17669 | 121.29497 | 4012 ft | 271 kts | 332° |
| 2026-04-30 09:25 | 25.19075 | 121.28122 | 3996 ft | 272 kts | 308° |
| 2026-04-30 09:25 | 25.20174 | 121.26429 | 3992 ft | 272 kts | 307° |
| 2026-04-30 09:26 | 25.21282 | 121.24733 | 3980 ft | 272 kts | 307° |
| 2026-04-30 09:26 | 25.22389 | 121.23047 | 3983 ft | 270 kts | 308° |
| 2026-04-30 09:26 | 25.23484 | 121.21388 | 4013 ft | 270 kts | 308° |
| 2026-04-30 09:26 | 25.24609 | 121.19693 | 3977 ft | 274 kts | 308° |
| 2026-04-30 09:27 | 25.25731 | 121.18007 | 3978 ft | 272 kts | 307° |
| 2026-04-30 09:27 | 25.26847 | 121.16326 | 3984 ft | 270 kts | 307° |
| 2026-04-30 09:27 | 25.27856 | 121.14614 | 3973 ft | 266 kts | 293° |
| 2026-04-30 09:27 | 25.28114 | 121.12592 | 3998 ft | 271 kts | 262° |
| 2026-04-30 09:28 | 25.27460 | 121.10660 | 3991 ft | 276 kts | 235° |
| 2026-04-30 09:28 | 25.26228 | 121.09036 | 3995 ft | 276 kts | 228° |
| 2026-04-30 09:28 | 25.24944 | 121.07439 | 4044 ft | 280 kts | 228° |
| 2026-04-30 09:28 | 25.23669 | 121.05839 | 3987 ft | 285 kts | 229° |
| 2026-04-30 09:29 | 25.22441 | 121.04287 | 3994 ft | 281 kts | 229° |
| 2026-04-30 09:29 | 25.21252 | 121.02783 | 3959 ft | 274 kts | 229° |
| 2026-04-30 09:29 | 25.20007 | 121.01255 | 3971 ft | 264 kts | 225° |
| 2026-04-30 09:29 | 25.18700 | 120.99851 | 3982 ft | 269 kts | 223° |
| 2026-04-30 09:30 | 25.17295 | 120.98378 | 4007 ft | 281 kts | 224° |
| 2026-04-30 09:30 | 25.15892 | 120.96893 | 3991 ft | 281 kts | 224° |
| 2026-04-30 09:30 | 25.14504 | 120.95416 | 3982 ft | 274 kts | 224° |
| 2026-04-30 09:30 | 25.13155 | 120.93977 | 3973 ft | 268 kts | 224° |
| 2026-04-30 09:31 | 25.11857 | 120.92580 | 3983 ft | 269 kts | 224° |
| 2026-04-30 09:31 | 25.10510 | 120.91126 | 4047 ft | 271 kts | 224° |
| 2026-04-30 09:31 | 25.09177 | 120.89687 | 4660 ft | 268 kts | 224° |
| 2026-04-30 09:31 | 25.07922 | 120.88338 | 6408 ft | 240 kts | 226° |
| 2026-04-30 09:32 | 25.06732 | 120.87054 | 7557 ft | 244 kts | 226° |
| 2026-04-30 09:32 | 25.05501 | 120.85724 | 8437 ft | 250 kts | 226° |
| 2026-04-30 09:32 | 25.04244 | 120.84366 | 9413 ft | 257 kts | 226° |
| 2026-04-30 09:32 | 25.02950 | 120.82969 | 10330 ft | 265 kts | 226° |
| 2026-04-30 09:33 | 25.01620 | 120.81534 | 11225 ft | 270 kts | 226° |
| 2026-04-30 09:33 | 25.00269 | 120.80079 | 12131 ft | 275 kts | 227° |
| 2026-04-30 09:33 | 24.98925 | 120.78633 | 13085 ft | 278 kts | 227° |
| 2026-04-30 09:33 | 24.97567 | 120.77170 | 14043 ft | 281 kts | 227° |
| 2026-04-30 09:34 | 24.96380 | 120.75892 | 14766 ft | 285 kts | 228° |
| 2026-04-30 09:34 | 24.94961 | 120.74365 | 15626 ft | 290 kts | 228° |
| 2026-04-30 09:34 | 24.93537 | 120.72833 | 16473 ft | 294 kts | 228° |
| 2026-04-30 09:34 | 24.92144 | 120.71334 | 17310 ft | 298 kts | 228° |
| 2026-04-30 09:35 | 24.90699 | 120.69781 | 18154 ft | 303 kts | 228° |
| 2026-04-30 09:35 | 24.89187 | 120.68155 | 18929 ft | 308 kts | 228° |
| 2026-04-30 09:35 | 24.87627 | 120.66480 | 19736 ft | 311 kts | 228° |
| 2026-04-30 09:35 | 24.86066 | 120.64805 | 20512 ft | 315 kts | 228° |
| 2026-04-30 09:36 | 24.84487 | 120.63110 | 21320 ft | 319 kts | 228° |
| 2026-04-30 09:36 | 24.82889 | 120.61395 | 22099 ft | 324 kts | 229° |
| 2026-04-30 09:36 | 24.81336 | 120.59730 | 22853 ft | 328 kts | 229° |
| 2026-04-30 09:36 | 24.79630 | 120.57900 | 23631 ft | 333 kts | 229° |
| 2026-04-30 09:37 | 24.77964 | 120.56114 | 24320 ft | 337 kts | 228° |
| 2026-04-30 09:37 | 24.76281 | 120.54313 | 25032 ft | 339 kts | 228° |
| 2026-04-30 09:37 | 24.74594 | 120.52507 | 25753 ft | 341 kts | 228° |
| 2026-04-30 09:37 | 24.72871 | 120.50687 | 26480 ft | 346 kts | 225° |
| 2026-04-30 09:38 | 24.71007 | 120.49073 | 27140 ft | 352 kts | 219° |
| 2026-04-30 09:38 | 24.68933 | 120.47517 | 27877 ft | 357 kts | 218° |
| 2026-04-30 09:38 | 24.66858 | 120.46012 | 28603 ft | 360 kts | 218° |
| 2026-04-30 09:38 | 24.64758 | 120.44483 | 29320 ft | 364 kts | 218° |
| 2026-04-30 09:39 | 24.62649 | 120.42927 | 29992 ft | 367 kts | 218° |
| 2026-04-30 09:39 | 24.60526 | 120.41342 | 30549 ft | 371 kts | 218° |
| 2026-04-30 09:39 | 24.58392 | 120.39737 | 31091 ft | 373 kts | 218° |
| 2026-04-30 09:39 | 24.56328 | 120.38179 | 31614 ft | 375 kts | 218° |
| 2026-04-30 09:40 | 24.54088 | 120.36487 | 32165 ft | 378 kts | 218° |
| 2026-04-30 09:40 | 24.51918 | 120.34847 | 32665 ft | 380 kts | 218° |
| 2026-04-30 09:40 | 24.49761 | 120.33216 | 33171 ft | 382 kts | 218° |
| 2026-04-30 09:40 | 24.47531 | 120.31533 | 33631 ft | 385 kts | 218° |
| 2026-04-30 09:41 | 24.45349 | 120.29886 | 34027 ft | 389 kts | 218° |
| 2026-04-30 09:41 | 24.43126 | 120.28185 | 34013 ft | 390 kts | 219° |
| 2026-04-30 09:41 | 24.38695 | 120.24745 | 34021 ft | 388 kts | 219° |
| 2026-04-30 09:42 | 24.34318 | 120.21345 | 34031 ft | 389 kts | 219° |
| 2026-04-30 09:42 | 24.30025 | 120.18020 | 34029 ft | 390 kts | 219° |
| 2026-04-30 09:43 | 24.25738 | 120.14706 | 34024 ft | 391 kts | 219° |
| 2026-04-30 09:43 | 24.21386 | 120.11344 | 34026 ft | 391 kts | 219° |
| 2026-04-30 09:44 | 24.17072 | 120.08014 | 34009 ft | 391 kts | 219° |
| 2026-04-30 09:44 | 24.12679 | 120.04622 | 34019 ft | 391 kts | 219° |
| 2026-04-30 09:45 | 24.08280 | 120.01217 | 34025 ft | 390 kts | 219° |
| 2026-04-30 09:45 | 24.03855 | 119.97794 | 34020 ft | 390 kts | 219° |
| 2026-04-30 09:46 | 23.99429 | 119.94376 | 34017 ft | 390 kts | 219° |
| 2026-04-30 09:46 | 23.95016 | 119.90976 | 34021 ft | 390 kts | 219° |
| 2026-04-30 09:47 | 23.90595 | 119.87573 | 34015 ft | 390 kts | 219° |
| 2026-04-30 09:47 | 23.86179 | 119.84175 | 34015 ft | 390 kts | 219° |
| 2026-04-30 09:48 | 23.81743 | 119.80764 | 34021 ft | 391 kts | 219° |
| 2026-04-30 09:48 | 23.77315 | 119.77361 | 34017 ft | 392 kts | 219° |
| 2026-04-30 09:49 | 23.72853 | 119.73936 | 34028 ft | 392 kts | 219° |
| 2026-04-30 09:49 | 23.68389 | 119.70511 | 34032 ft | 393 kts | 219° |
| 2026-04-30 09:50 | 23.63935 | 119.67098 | 34036 ft | 393 kts | 219° |
| 2026-04-30 09:50 | 23.59829 | 119.63260 | 34037 ft | 388 kts | 230° |
| 2026-04-30 09:51 | 23.56508 | 119.58671 | 34036 ft | 385 kts | 238° |
| 2026-04-30 09:51 | 23.53657 | 119.53748 | 34035 ft | 385 kts | 240° |
| 2026-04-30 09:52 | 23.50842 | 119.48815 | 34033 ft | 385 kts | 239° |
| 2026-04-30 09:52 | 23.48015 | 119.43904 | 34029 ft | 385 kts | 239° |
| 2026-04-30 09:53 | 23.45167 | 119.38987 | 34019 ft | 385 kts | 239° |
| 2026-04-30 09:53 | 23.42312 | 119.34074 | 34014 ft | 385 kts | 239° |
| 2026-04-30 09:54 | 23.39455 | 119.29164 | 34003 ft | 385 kts | 239° |
| 2026-04-30 09:54 | 23.36595 | 119.24254 | 34004 ft | 384 kts | 239° |
| 2026-04-30 09:55 | 23.33754 | 119.19379 | 34011 ft | 384 kts | 239° |
| 2026-04-30 09:55 | 23.30887 | 119.14466 | 34009 ft | 384 kts | 239° |
| 2026-04-30 09:56 | 23.28032 | 119.09580 | 34012 ft | 384 kts | 239° |
| 2026-04-30 09:56 | 23.25180 | 119.04701 | 34015 ft | 384 kts | 239° |
| 2026-04-30 09:57 | 23.22325 | 118.99822 | 34015 ft | 384 kts | 239° |
| 2026-04-30 09:57 | 23.19507 | 118.95011 | 34015 ft | 384 kts | 239° |
| 2026-04-30 09:58 | 23.16668 | 118.90170 | 34018 ft | 384 kts | 239° |
| 2026-04-30 09:58 | 23.13833 | 118.85338 | 34018 ft | 384 kts | 239° |
| 2026-04-30 09:59 | 23.08102 | 118.75586 | 34013 ft | 385 kts | 239° |
| 2026-04-30 10:00 | 23.03794 | 118.68267 | 34015 ft | 386 kts | 239° |
| 2026-04-30 10:01 | 22.99471 | 118.60932 | 34023 ft | 385 kts | 239° |
| 2026-04-30 10:02 | 22.95144 | 118.53602 | 34027 ft | 386 kts | 239° |
| 2026-04-30 10:02 | 22.92245 | 118.48721 | 34007 ft | 385 kts | 239° |
| 2026-04-30 10:03 | 22.89354 | 118.43863 | 34022 ft | 385 kts | 239° |
| 2026-04-30 10:03 | 22.86470 | 118.39020 | 34021 ft | 385 kts | 239° |
| 2026-04-30 10:04 | 22.83579 | 118.34166 | 34013 ft | 384 kts | 239° |
| 2026-04-30 10:04 | 22.80702 | 118.29339 | 34019 ft | 385 kts | 239° |
| 2026-04-30 10:05 | 22.77791 | 118.24460 | 34024 ft | 387 kts | 239° |
| 2026-04-30 10:05 | 22.75358 | 118.20385 | 34029 ft | 388 kts | 239° |
| 2026-04-30 10:06 | 22.72415 | 118.15461 | 34024 ft | 388 kts | 239° |
| 2026-04-30 10:06 | 22.69007 | 118.09764 | 34024 ft | 388 kts | 239° |
| 2026-04-30 10:07 | 22.66546 | 118.05654 | 34020 ft | 388 kts | 239° |
| 2026-04-30 10:07 | 22.63625 | 118.00778 | 34019 ft | 388 kts | 239° |
| 2026-04-30 10:08 | 22.60712 | 117.95923 | 34019 ft | 387 kts | 239° |
| 2026-04-30 10:08 | 22.57772 | 117.90999 | 34019 ft | 387 kts | 239° |
| 2026-04-30 10:09 | 22.54924 | 117.86209 | 34024 ft | 387 kts | 239° |
| 2026-04-30 10:09 | 22.51970 | 117.81245 | 34022 ft | 388 kts | 239° |
| 2026-04-30 10:10 | 22.49045 | 117.76338 | 34024 ft | 389 kts | 239° |
| 2026-04-30 10:10 | 22.46119 | 117.71434 | 34021 ft | 389 kts | 239° |
| 2026-04-30 10:11 | 22.43182 | 117.66516 | 34017 ft | 390 kts | 239° |
| 2026-04-30 10:11 | 22.40239 | 117.61592 | 34017 ft | 390 kts | 239° |
| 2026-04-30 10:12 | 22.37293 | 117.56668 | 34023 ft | 391 kts | 239° |
| 2026-04-30 10:12 | 22.34563 | 117.51617 | 34016 ft | 388 kts | 250° |
| 2026-04-30 10:13 | 22.33214 | 117.46029 | 34021 ft | 387 kts | 263° |
| 2026-04-30 10:13 | 22.33000 | 117.40185 | 34025 ft | 388 kts | 269° |
| 2026-04-30 10:14 | 22.32962 | 117.34385 | 34026 ft | 389 kts | 269° |
| 2026-04-30 10:14 | 22.32857 | 117.25603 | 34024 ft | 390 kts | 268° |
| 2026-04-30 10:15 | 22.32756 | 117.19739 | 34026 ft | 391 kts | 268° |
| 2026-04-30 10:15 | 22.32645 | 117.13866 | 34023 ft | 391 kts | 268° |
| 2026-04-30 10:16 | 22.32531 | 117.07998 | 34024 ft | 391 kts | 268° |
| 2026-04-30 10:17 | 22.32357 | 116.99195 | 34026 ft | 391 kts | 268° |
| 2026-04-30 10:17 | 22.32178 | 116.90408 | 34025 ft | 390 kts | 268° |
| 2026-04-30 10:18 | 22.32057 | 116.84560 | 34026 ft | 390 kts | 268° |
| 2026-04-30 10:19 | 22.31871 | 116.75817 | 34024 ft | 389 kts | 268° |
| 2026-04-30 10:19 | 22.31745 | 116.69977 | 34023 ft | 389 kts | 268° |
| 2026-04-30 10:20 | 22.31617 | 116.64182 | 34025 ft | 388 kts | 268° |
| 2026-04-30 10:20 | 22.31421 | 116.55449 | 34026 ft | 388 kts | 268° |
| 2026-04-30 10:21 | 22.31288 | 116.49634 | 34024 ft | 388 kts | 268° |
| 2026-04-30 10:21 | 22.31152 | 116.43814 | 34024 ft | 388 kts | 268° |
| 2026-04-30 10:22 | 22.31015 | 116.38016 | 34026 ft | 388 kts | 268° |
| 2026-04-30 10:22 | 22.30875 | 116.32161 | 34023 ft | 389 kts | 268° |
| 2026-04-30 10:23 | 22.30733 | 116.26328 | 34028 ft | 389 kts | 268° |
| 2026-04-30 10:23 | 22.30589 | 116.20497 | 34023 ft | 389 kts | 268° |
| 2026-04-30 10:24 | 22.30443 | 116.14673 | 34025 ft | 389 kts | 268° |
| 2026-04-30 10:24 | 22.30295 | 116.08850 | 34027 ft | 389 kts | 268° |
| 2026-04-30 10:25 | 22.30144 | 116.03006 | 34025 ft | 389 kts | 268° |
| 2026-04-30 10:25 | 22.29992 | 115.97173 | 34023 ft | 390 kts | 268° |
| 2026-04-30 10:26 | 22.29838 | 115.91338 | 34018 ft | 390 kts | 268° |
| 2026-04-30 10:26 | 22.29761 | 115.88440 | 33636 ft | 380 kts | 268° |
| 2026-04-30 10:26 | 22.29686 | 115.85635 | 32883 ft | 370 kts | 268° |
| 2026-04-30 10:27 | 22.29611 | 115.82876 | 31787 ft | 369 kts | 268° |
| 2026-04-30 10:27 | 22.29543 | 115.80166 | 30567 ft | 373 kts | 268° |
| 2026-04-30 10:27 | 22.29483 | 115.77385 | 29371 ft | 374 kts | 268° |
| 2026-04-30 10:27 | 22.29422 | 115.74500 | 28132 ft | 372 kts | 268° |
| 2026-04-30 10:28 | 22.29361 | 115.71719 | 26959 ft | 370 kts | 268° |
| 2026-04-30 10:28 | 22.29301 | 115.69013 | 26296 ft | 362 kts | 268° |
| 2026-04-30 10:28 | 22.29234 | 115.66357 | 25865 ft | 360 kts | 268° |
| 2026-04-30 10:28 | 22.29158 | 115.63624 | 25440 ft | 359 kts | 268° |
| 2026-04-30 10:29 | 22.29084 | 115.61031 | 25013 ft | 358 kts | 268° |
| 2026-04-30 10:29 | 22.29008 | 115.58366 | 24572 ft | 358 kts | 268° |
| 2026-04-30 10:29 | 22.28933 | 115.55729 | 24138 ft | 357 kts | 267° |
| 2026-04-30 10:29 | 22.28857 | 115.53055 | 23704 ft | 357 kts | 267° |
| 2026-04-30 10:30 | 22.28780 | 115.50337 | 23197 ft | 357 kts | 267° |
| 2026-04-30 10:30 | 22.28706 | 115.47724 | 22732 ft | 355 kts | 267° |
| 2026-04-30 10:30 | 22.28630 | 115.45066 | 22288 ft | 353 kts | 267° |
| 2026-04-30 10:30 | 22.28554 | 115.42431 | 21852 ft | 351 kts | 267° |
| 2026-04-30 10:31 | 22.28482 | 115.39916 | 21437 ft | 350 kts | 267° |
| 2026-04-30 10:31 | 22.28407 | 115.37344 | 21017 ft | 348 kts | 267° |
| 2026-04-30 10:31 | 22.28332 | 115.34771 | 20600 ft | 346 kts | 267° |
| 2026-04-30 10:31 | 22.28258 | 115.32280 | 20186 ft | 345 kts | 267° |
| 2026-04-30 10:32 | 22.28182 | 115.29775 | 19777 ft | 344 kts | 267° |
| 2026-04-30 10:32 | 22.28106 | 115.27318 | 19357 ft | 343 kts | 267° |
| 2026-04-30 10:32 | 22.28028 | 115.24783 | 18937 ft | 342 kts | 267° |
| 2026-04-30 10:32 | 22.27952 | 115.22334 | 18526 ft | 342 kts | 267° |
| 2026-04-30 10:33 | 22.27872 | 115.19752 | 18060 ft | 341 kts | 267° |
| 2026-04-30 10:33 | 22.27793 | 115.17220 | 17609 ft | 339 kts | 267° |
| 2026-04-30 10:33 | 22.27722 | 115.14962 | 17215 ft | 337 kts | 267° |
| 2026-04-30 10:33 | 22.27644 | 115.12463 | 16790 ft | 335 kts | 267° |
| 2026-04-30 10:34 | 22.27567 | 115.10021 | 16379 ft | 333 kts | 267° |
| 2026-04-30 10:34 | 22.27489 | 115.07559 | 15971 ft | 331 kts | 267° |
| 2026-04-30 10:34 | 22.27410 | 115.05098 | 15566 ft | 329 kts | 267° |
| 2026-04-30 10:34 | 22.27333 | 115.02686 | 15162 ft | 327 kts | 267° |
| 2026-04-30 10:35 | 22.27256 | 115.00283 | 14756 ft | 326 kts | 267° |
| 2026-04-30 10:35 | 22.27178 | 114.97865 | 14358 ft | 324 kts | 267° |
| 2026-04-30 10:35 | 22.27102 | 114.95510 | 13958 ft | 323 kts | 267° |
| 2026-04-30 10:35 | 22.27023 | 114.93115 | 13525 ft | 322 kts | 267° |
| 2026-04-30 10:36 | 22.26945 | 114.90782 | 13112 ft | 320 kts | 267° |
| 2026-04-30 10:36 | 22.26863 | 114.88419 | 12709 ft | 318 kts | 267° |
| 2026-04-30 10:36 | 22.26781 | 114.86073 | 12313 ft | 316 kts | 267° |
| 2026-04-30 10:36 | 22.26701 | 114.83818 | 11941 ft | 314 kts | 267° |
| 2026-04-30 10:37 | 22.26620 | 114.81504 | 11556 ft | 312 kts | 267° |
| 2026-04-30 10:37 | 22.26399 | 114.79330 | 11166 ft | 305 kts | 253° |
| 2026-04-30 10:37 | 22.25519 | 114.77290 | 10965 ft | 298 kts | 238° |
| 2026-04-30 10:37 | 22.24217 | 114.75634 | 10815 ft | 292 kts | 227° |
| 2026-04-30 10:38 | 22.22764 | 114.74139 | 10659 ft | 291 kts | 225° |
| 2026-04-30 10:38 | 22.21292 | 114.72662 | 10537 ft | 296 kts | 225° |
| 2026-04-30 10:38 | 22.19789 | 114.71152 | 10407 ft | 295 kts | 225° |
| 2026-04-30 10:38 | 22.18357 | 114.69707 | 10242 ft | 288 kts | 225° |
| 2026-04-30 10:39 | 22.16931 | 114.68261 | 10085 ft | 280 kts | 226° |
| 2026-04-30 10:39 | 22.15575 | 114.66880 | 9951 ft | 271 kts | 226° |
| 2026-04-30 10:39 | 22.14257 | 114.65533 | 9856 ft | 263 kts | 226° |
| 2026-04-30 10:39 | 22.13096 | 114.64343 | 9737 ft | 262 kts | 226° |
| 2026-04-30 10:40 | 22.11787 | 114.63001 | 9640 ft | 261 kts | 226° |
| 2026-04-30 10:40 | 22.10544 | 114.61725 | 9549 ft | 261 kts | 226° |
| 2026-04-30 10:40 | 22.09220 | 114.60367 | 9407 ft | 261 kts | 226° |
| 2026-04-30 10:40 | 22.07966 | 114.59080 | 9298 ft | 261 kts | 226° |
| 2026-04-30 10:41 | 22.06665 | 114.57746 | 9208 ft | 261 kts | 226° |
| 2026-04-30 10:41 | 22.05362 | 114.56410 | 9102 ft | 260 kts | 226° |
| 2026-04-30 10:41 | 22.04091 | 114.55109 | 8957 ft | 254 kts | 226° |
| 2026-04-30 10:41 | 22.02848 | 114.53832 | 8763 ft | 254 kts | 227° |
| 2026-04-30 10:42 | 22.01876 | 114.52348 | 8661 ft | 260 kts | 246° |
| 2026-04-30 10:42 | 22.01193 | 114.50552 | 8656 ft | 259 kts | 248° |
| 2026-04-30 10:42 | 22.00537 | 114.48799 | 8364 ft | 250 kts | 248° |
| 2026-04-30 10:42 | 21.99893 | 114.47089 | 8261 ft | 252 kts | 248° |
| 2026-04-30 10:43 | 21.99236 | 114.45351 | 8153 ft | 255 kts | 248° |
| 2026-04-30 10:43 | 21.98581 | 114.43628 | 8059 ft | 255 kts | 248° |
| 2026-04-30 10:43 | 21.97911 | 114.41865 | 7947 ft | 255 kts | 248° |
| 2026-04-30 10:43 | 21.97272 | 114.40192 | 7857 ft | 255 kts | 248° |
| 2026-04-30 10:44 | 21.96593 | 114.38414 | 7761 ft | 255 kts | 248° |
| 2026-04-30 10:44 | 21.95928 | 114.36677 | 7647 ft | 254 kts | 248° |
| 2026-04-30 10:44 | 21.95268 | 114.34952 | 7519 ft | 255 kts | 248° |
| 2026-04-30 10:44 | 21.94605 | 114.33222 | 7401 ft | 255 kts | 248° |
| 2026-04-30 10:45 | 21.93949 | 114.31511 | 7305 ft | 254 kts | 248° |
| 2026-04-30 10:45 | 21.93270 | 114.29741 | 7021 ft | 252 kts | 248° |
| 2026-04-30 10:45 | 21.92618 | 114.28044 | 6926 ft | 249 kts | 248° |
| 2026-04-30 10:45 | 21.91965 | 114.26343 | 6827 ft | 251 kts | 248° |
| 2026-04-30 10:46 | 21.91318 | 114.24659 | 6704 ft | 253 kts | 248° |
| 2026-04-30 10:46 | 21.90654 | 114.22933 | 6615 ft | 253 kts | 248° |
| 2026-04-30 10:46 | 21.90006 | 114.21247 | 6545 ft | 251 kts | 248° |
| 2026-04-30 10:46 | 21.89655 | 114.19489 | 6416 ft | 251 kts | 271° |
| 2026-04-30 10:47 | 21.90010 | 114.17687 | 6260 ft | 256 kts | 292° |
| 2026-04-30 10:47 | 21.90817 | 114.16029 | 6139 ft | 258 kts | 296° |
| 2026-04-30 10:47 | 21.91649 | 114.14431 | 6067 ft | 257 kts | 297° |
| 2026-04-30 10:47 | 21.92522 | 114.12768 | 6026 ft | 260 kts | 297° |
| 2026-04-30 10:48 | 21.93399 | 114.11097 | 5941 ft | 260 kts | 297° |
| 2026-04-30 10:48 | 21.94271 | 114.09431 | 5384 ft | 253 kts | 297° |
| 2026-04-30 10:48 | 21.95077 | 114.07892 | 5302 ft | 230 kts | 297° |
| 2026-04-30 10:48 | 21.95578 | 114.06931 | 5312 ft | 227 kts | 297° |
| 2026-04-30 10:49 | 21.96613 | 114.04934 | 5245 ft | 235 kts | 297° |
| 2026-04-30 10:49 | 21.97378 | 114.03457 | 5143 ft | 232 kts | 297° |
| 2026-04-30 10:49 | 21.98152 | 114.01961 | 5037 ft | 236 kts | 297° |
| 2026-04-30 10:49 | 21.98907 | 114.00498 | 4968 ft | 235 kts | 297° |
| 2026-04-30 10:50 | 21.99710 | 113.98943 | 4850 ft | 236 kts | 297° |
| 2026-04-30 10:50 | 22.00502 | 113.97409 | 4792 ft | 236 kts | 297° |
| 2026-04-30 10:50 | 22.01028 | 113.96390 | 4747 ft | 235 kts | 297° |
| 2026-04-30 10:50 | 22.01795 | 113.94902 | 4633 ft | 234 kts | 297° |
| 2026-04-30 10:51 | 22.02588 | 113.93362 | 4402 ft | 238 kts | 297° |
| 2026-04-30 10:51 | 22.03390 | 113.91805 | 4256 ft | 241 kts | 298° |
| 2026-04-30 10:51 | 22.04186 | 113.90259 | 4145 ft | 235 kts | 298° |
| 2026-04-30 10:51 | 22.04968 | 113.88743 | 4027 ft | 236 kts | 298° |
| 2026-04-30 10:52 | 22.05759 | 113.87206 | 3929 ft | 238 kts | 298° |
| 2026-04-30 10:52 | 22.06780 | 113.85223 | 3779 ft | 237 kts | 298° |
| 2026-04-30 10:52 | 22.07299 | 113.84212 | 3703 ft | 238 kts | 299° |
| 2026-04-30 10:52 | 22.08088 | 113.82677 | 3577 ft | 233 kts | 299° |
| 2026-04-30 10:53 | 22.08869 | 113.81159 | 3493 ft | 235 kts | 299° |
| 2026-04-30 10:53 | 22.09666 | 113.79610 | 3381 ft | 241 kts | 300° |
| 2026-04-30 10:53 | 22.10506 | 113.78082 | 3305 ft | 229 kts | 309° |
| 2026-04-30 10:53 | 22.11698 | 113.77052 | 3245 ft | 220 kts | 330° |
| 2026-04-30 10:54 | 22.13024 | 113.76355 | 3045 ft | 205 kts | 335° |
| 2026-04-30 10:54 | 22.14261 | 113.75756 | 2921 ft | 186 kts | 336° |
| 2026-04-30 10:54 | 22.15399 | 113.75205 | 2836 ft | 179 kts | 336° |
| 2026-04-30 10:54 | 22.16465 | 113.74684 | 2774 ft | 172 kts | 336° |
| 2026-04-30 10:55 | 22.17543 | 113.74153 | 2686 ft | 171 kts | 337° |
| 2026-04-30 10:55 | 22.18602 | 113.73629 | 2614 ft | 172 kts | 336° |
| 2026-04-30 10:55 | 22.19681 | 113.73093 | 2528 ft | 173 kts | 336° |
| 2026-04-30 10:55 | 22.20755 | 113.72558 | 2464 ft | 173 kts | 337° |
| 2026-04-30 10:56 | 22.21838 | 113.72019 | 2374 ft | 172 kts | 337° |
| 2026-04-30 10:56 | 22.22959 | 113.71593 | 2257 ft | 169 kts | 356° |
| 2026-04-30 10:56 | 22.24056 | 113.71925 | 2195 ft | 170 kts | 30° |
| 2026-04-30 10:56 | 22.24981 | 113.72704 | 2144 ft | 171 kts | 38° |
| 2026-04-30 10:57 | 22.25886 | 113.73542 | 2063 ft | 173 kts | 37° |
| 2026-04-30 10:57 | 22.26787 | 113.74379 | 1996 ft | 172 kts | 37° |
| 2026-04-30 10:57 | 22.27680 | 113.75217 | 1953 ft | 170 kts | 40° |
| 2026-04-30 10:57 | 22.28299 | 113.76299 | 1847 ft | 173 kts | 66° |
| 2026-04-30 10:58 | 22.28697 | 113.77522 | 1780 ft | 175 kts | 65° |
| 2026-04-30 10:58 | 22.29115 | 113.78766 | 1705 ft | 178 kts | 66° |
| 2026-04-30 10:58 | 22.29517 | 113.80010 | 1580 ft | 174 kts | 66° |
| 2026-04-30 10:58 | 22.29899 | 113.81205 | 1392 ft | 164 kts | 66° |
| 2026-04-30 10:59 | 22.30259 | 113.82325 | 1192 ft | 155 kts | 65° |
| 2026-04-30 10:59 | 22.30609 | 113.83386 | 846 ft | 149 kts | 64° |
| 2026-04-30 10:59 | 22.30970 | 113.84400 | 693 ft | 146 kts | 64° |
| 2026-04-30 10:59 | 22.31333 | 113.85428 | 665 ft | 151 kts | 67° |
| 2026-04-30 11:00 | 22.31663 | 113.86492 | 554 ft | 150 kts | 70° |
| 2026-04-30 11:00 | 22.31962 | 113.87572 | 247 ft | 153 kts | 70° |
| 2026-04-30 11:00 | 22.32253 | 113.88577 | 58 ft | 147 kts | 65° |
| 2026-04-30 11:00 | 22.32548 | 113.89423 | 41 ft | 72 kts | 70° |
| 2026-04-30 11:01 | 22.32648 | 113.89730 | 43 ft | 43 kts | 71° |
| 2026-04-30 11:01 | 22.32706 | 113.90033 | 42 ft | 41 kts | 92° |
| 2026-04-30 11:01 | 22.32680 | 113.90211 | 42 ft | 0 kts | 101° |
| 2026-04-30 11:01 | 22.32679 | 113.90218 | 43 ft | 2 kts | 101° |
| 2026-04-30 11:02 | 22.32676 | 113.90236 | 42 ft | 3 kts | 101° |
| 2026-04-30 11:02 | 22.32671 | 113.90265 | 42 ft | 5 kts | 101° |
| 2026-04-30 11:02 | 22.32664 | 113.90303 | 42 ft | 6 kts | 99° |
| 2026-04-30 11:02 | 22.32669 | 113.90355 | 40 ft | 8 kts | 73° |
| 2026-04-30 11:03 | 22.32687 | 113.90414 | 42 ft | 9 kts | 72° |
| 2026-04-30 11:03 | 22.32709 | 113.90488 | 42 ft | 12 kts | 71° |
| 2026-04-30 11:03 | 22.32741 | 113.90583 | 42 ft | 15 kts | 70° |
| 2026-04-30 11:04 | 22.32817 | 113.90820 | 42 ft | 19 kts | 70° |
| 2026-04-30 11:04 | 22.32861 | 113.90954 | 43 ft | 19 kts | 70° |
| 2026-04-30 11:04 | 22.32904 | 113.91089 | 43 ft | 19 kts | 71° |
| 2026-04-30 11:04 | 22.32949 | 113.91228 | 43 ft | 21 kts | 70° |
| 2026-04-30 11:05 | 22.32999 | 113.91382 | 43 ft | 23 kts | 71° |
| 2026-04-30 11:05 | 22.33053 | 113.91549 | 43 ft | 25 kts | 71° |
| 2026-04-30 11:05 | 22.33114 | 113.91738 | 42 ft | 27 kts | 71° |
| 2026-04-30 11:05 | 22.33173 | 113.91921 | 42 ft | 25 kts | 70° |
| 2026-04-30 11:06 | 22.33221 | 113.92073 | 42 ft | 11 kts | 79° |
| 2026-04-30 11:06 | 22.33206 | 113.92096 | 42 ft | 5 kts | 133° |
| 2026-04-30 11:06 | 22.33171 | 113.92119 | 42 ft | 8 kts | 160° |
| 2026-04-30 11:06 | 22.33115 | 113.92140 | 42 ft | 10 kts | 160° |
| 2026-04-30 11:07 | 22.33046 | 113.92166 | 42 ft | 12 kts | 161° |
| 2026-04-30 11:07 | 22.32961 | 113.92198 | 42 ft | 17 kts | 161° |
| 2026-04-30 11:07 | 22.32827 | 113.92248 | 41 ft | 22 kts | 161° |
| 2026-04-30 11:07 | 22.32672 | 113.92307 | 42 ft | 25 kts | 161° |
| 2026-04-30 11:08 | 22.32510 | 113.92367 | 42 ft | 25 kts | 161° |
| 2026-04-30 11:08 | 22.32350 | 113.92427 | 42 ft | 25 kts | 161° |
| 2026-04-30 11:08 | 22.32258 | 113.92471 | 42 ft | 11 kts | 133° |
| 2026-04-30 11:08 | 22.32254 | 113.92545 | 42 ft | 11 kts | 71° |
| 2026-04-30 11:09 | 22.32274 | 113.92631 | 42 ft | 12 kts | 102° |
| 2026-04-30 11:09 | 22.32205 | 113.92677 | 42 ft | 13 kts | 161° |
| 2026-04-30 11:09 | 22.32116 | 113.92710 | 41 ft | 15 kts | 161° |
| 2026-04-30 11:09 | 22.32014 | 113.92748 | 40 ft | 16 kts | 161° |
| 2026-04-30 11:10 | 22.31909 | 113.92786 | 42 ft | 15 kts | 171° |
| 2026-04-30 11:10 | 22.31858 | 113.92735 | 42 ft | 11 kts | 249° |
| 2026-04-30 11:10 | 22.31834 | 113.92654 | 42 ft | 12 kts | 251° |
| 2026-04-30 11:10 | 22.31805 | 113.92565 | 42 ft | 13 kts | 251° |
| 2026-04-30 11:11 | 22.31773 | 113.92466 | 41 ft | 14 kts | 251° |
| 2026-04-30 11:11 | 22.31740 | 113.92365 | 42 ft | 15 kts | 251° |
| 2026-04-30 11:11 | 22.31705 | 113.92256 | 41 ft | 16 kts | 251° |
| 2026-04-30 11:11 | 22.31668 | 113.92141 | 41 ft | 17 kts | 251° |
| 2026-04-30 11:12 | 22.31619 | 113.92040 | 41 ft | 10 kts | 206° |
| 2026-04-30 11:12 | 22.31547 | 113.92047 | 42 ft | 11 kts | 161° |
| 2026-04-30 11:12 | 22.31469 | 113.92076 | 42 ft | 13 kts | 161° |
| 2026-04-30 11:12 | 22.31407 | 113.92148 | 42 ft | 14 kts | 118° |
| 2026-04-30 11:13 | 22.31365 | 113.92242 | 42 ft | 14 kts | 116° |
| 2026-04-30 11:13 | 22.31331 | 113.92318 | 42 ft | 10 kts | 116° |
| 2026-04-30 11:13 | 22.31323 | 113.92359 | 42 ft | 5 kts | 79° |
| 2026-04-30 11:13 | 22.31351 | 113.92384 | 42 ft | 6 kts | 31° |
| 2026-04-30 11:14 | 22.31373 | 113.92397 | 42 ft | 1 kts | 28° |
| 2026-04-30 11:14 | 22.31382 | 113.92401 | 42 ft | 2 kts | 27° |
| 2026-04-30 11:14 | 22.31387 | 113.92404 | 42 ft | 0 kts | 27° |